Time;durP1;ratioP1;P1;durP2;ratioP2;P2;SDS_P1;SDS_P2;PMS_P1;PMS_P2;Temp;Humidity;BMP_temperature;BMP_pressure;BME280_temperature;BME280_humidity;BME280_pressure;Samples;Min_cycle;Max_cycle;Signal;HPM_P1;HPM_P2
2022/07/16 00:01:23;;;;;;;10.45;3.78;;;;;;;;;;4949109;29;20037;-52
2022/07/16 00:03:54;;;;;;;17.75;3.60;;;;;;;;;;4943308;29;20028;-49
2022/07/16 00:06:22;;;;;;;11.17;3.90;;;;;;;;;;4943214;29;20042;-49
2022/07/16 00:08:49;;;;;;;12.07;3.03;;;;;;;;;;4942088;29;20071;-49
2022/07/16 00:11:16;;;;;;;15.40;3.47;;;;;;;;;;4933540;29;20027;-48
2022/07/16 00:13:44;;;;;;;23.40;4.40;;;;;;;;;;4932622;29;20028;-47
2022/07/16 00:16:11;;;;;;;11.10;3.63;;;;;;;;;;4934029;29;20384;-48
2022/07/16 00:21:24;;;;;;;10.70;3.92;;;;;;;;;;4933129;29;20047;-48
2022/07/16 00:23:51;;;;;;;13.90;3.90;;;;;;;;;;4933917;29;20075;-51
2022/07/16 00:26:18;;;;;;;17.75;4.15;;;;;;;;;;4943968;29;20019;-47
2022/07/16 00:28:45;;;;;;;14.60;4.40;;;;;;;;;;4947399;29;20103;-51
2022/07/16 00:31:12;;;;;;;18.52;5.30;;;;;;;;;;4947857;29;20070;-49
2022/07/16 00:33:39;;;;;;;15.65;4.80;;;;;;;;;;4947771;29;20047;-50
2022/07/16 00:36:07;;;;;;;19.65;5.03;;;;;;;;;;4946326;29;20032;-47
2022/07/16 00:38:34;;;;;;;8.98;3.97;;;;;;;;;;4956193;28;20537;-49
2022/07/16 00:41:00;;;;;;;10.52;4.10;;;;;;;;;;4946228;29;20066;-51
2022/07/16 00:43:27;;;;;;;14.73;4.60;;;;;;;;;;4946219;29;20034;-51
2022/07/16 00:45:55;;;;;;;14.07;4.68;;;;;;;;;;4948701;29;20474;-49
2022/07/16 00:48:22;;;;;;;12.68;5.20;;;;;;;;;;4951171;29;20102;-46
2022/07/16 00:50:49;;;;;;;14.82;4.38;;;;;;;;;;4933681;29;20047;-50
2022/07/16 00:53:16;;;;;;;14.75;4.68;;;;;;;;;;4937031;29;20450;-49
2022/07/16 00:55:43;;;;;;;19.38;5.45;;;;;;;;;;4955106;29;20035;-46
2022/07/16 00:58:10;;;;;;;22.77;6.18;;;;;;;;;;4951037;29;20036;-50
2022/07/16 01:00:37;;;;;;;17.08;5.53;;;;;;;;;;4952328;29;20090;-48
2022/07/16 01:03:05;;;;;;;17.33;5.30;;;;;;;;;;4954678;29;20030;-49
2022/07/16 01:05:32;;;;;;;20.02;5.75;;;;;;;;;;4953455;29;20031;-53
2022/07/16 01:07:59;;;;;;;20.77;5.75;;;;;;;;;;4953696;29;20135;-51
2022/07/16 01:10:27;;;;;;;17.85;6.25;;;;;;;;;;4954163;29;20019;-51
2022/07/16 01:12:54;;;;;;;15.77;5.45;;;;;;;;;;4941586;29;20032;-51
2022/07/16 01:15:21;;;;;;;18.80;5.43;;;;;;;;;;4954015;29;20102;-50
2022/07/16 01:17:47;;;;;;;18.10;5.60;;;;;;;;;;4953694;29;20028;-46
2022/07/16 01:20:14;;;;;;;15.55;5.43;;;;;;;;;;4953851;29;20459;-49
2022/07/16 01:22:42;;;;;;;16.98;5.50;;;;;;;;;;4954026;29;20032;-50
2022/07/16 01:25:11;;;;;;;13.00;4.55;;;;;;;;;;4954090;29;20030;-52
2022/07/16 01:27:38;;;;;;;16.73;5.30;;;;;;;;;;4951467;29;20185;-50
2022/07/16 01:30:08;;;;;;;13.73;4.55;;;;;;;;;;4951153;29;20067;-50
2022/07/16 01:32:35;;;;;;;12.32;4.25;;;;;;;;;;4950474;29;20067;-47
2022/07/16 01:35:03;;;;;;;11.88;4.80;;;;;;;;;;4951059;29;20027;-47
2022/07/16 01:37:30;;;;;;;13.15;4.85;;;;;;;;;;4950617;29;20109;-47
2022/07/16 01:39:57;;;;;;;22.05;4.60;;;;;;;;;;4951287;29;20050;-47
2022/07/16 01:42:24;;;;;;;12.00;4.47;;;;;;;;;;4952342;29;20452;-52
2022/07/16 01:44:51;;;;;;;12.98;4.25;;;;;;;;;;4952292;29;20057;-46
2022/07/16 01:47:18;;;;;;;12.23;3.92;;;;;;;;;;4951645;29;20038;-48
2022/07/16 01:49:48;;;;;;;12.88;4.90;;;;;;;;;;4950171;29;20551;-50
2022/07/16 01:52:16;;;;;;;10.50;3.85;;;;;;;;;;4950829;29;20114;-51
2022/07/16 01:54:50;;;;;;;12.38;3.90;;;;;;;;;;4951242;29;20114;-46
2022/07/16 01:57:17;;;;;;;11.75;3.65;;;;;;;;;;4951577;29;20034;-50
2022/07/16 01:59:45;;;;;;;17.38;3.92;;;;;;;;;;4949064;29;20034;-49
2022/07/16 02:02:12;;;;;;;10.63;3.55;;;;;;;;;;4949842;29;20042;-51
2022/07/16 02:04:40;;;;;;;7.88;3.20;;;;;;;;;;4950016;28;20038;-50
2022/07/16 02:07:08;;;;;;;10.23;3.33;;;;;;;;;;4950891;29;20545;-50
2022/07/16 02:09:35;;;;;;;8.55;3.50;;;;;;;;;;4950966;29;20118;-49
2022/07/16 02:12:02;;;;;;;10.20;3.70;;;;;;;;;;4948987;29;20031;-53
2022/07/16 02:14:29;;;;;;;11.75;3.65;;;;;;;;;;4950492;29;20042;-54
2022/07/16 02:16:56;;;;;;;11.27;3.75;;;;;;;;;;4951162;29;20031;-48
2022/07/16 02:19:23;;;;;;;9.30;3.38;;;;;;;;;;4951065;29;20030;-50
2022/07/16 02:21:50;;;;;;;10.18;3.13;;;;;;;;;;4950546;29;20023;-49
2022/07/16 02:24:17;;;;;;;12.35;3.13;;;;;;;;;;4951048;29;20477;-50
2022/07/16 02:26:44;;;;;;;9.20;3.00;;;;;;;;;;4951795;29;20042;-48
2022/07/16 02:29:11;;;;;;;10.05;2.97;;;;;;;;;;4952218;28;20651;-47
2022/07/16 02:31:38;;;;;;;8.43;3.10;;;;;;;;;;4863931;29;2569314;-52
2022/07/16 02:34:05;;;;;;;12.27;3.15;;;;;;;;;;4952620;29;20035;-52
2022/07/16 02:36:32;;;;;;;10.50;3.22;;;;;;;;;;4952003;29;20066;-50
2022/07/16 02:38:59;;;;;;;9.60;3.00;;;;;;;;;;4953061;29;20032;-54
2022/07/16 02:41:26;;;;;;;9.57;3.13;;;;;;;;;;4952116;29;20027;-51
2022/07/16 02:43:53;;;;;;;7.28;2.92;;;;;;;;;;4952179;29;20019;-51
2022/07/16 02:46:20;;;;;;;9.50;2.78;;;;;;;;;;4952098;29;20086;-48
2022/07/16 02:48:47;;;;;;;10.65;2.97;;;;;;;;;;4952180;29;20043;-53
2022/07/16 02:51:14;;;;;;;5.75;2.50;;;;;;;;;;4951362;29;20062;-46
2022/07/16 02:53:41;;;;;;;6.30;2.35;;;;;;;;;;4952289;29;20038;-47
2022/07/16 02:56:08;;;;;;;6.38;2.38;;;;;;;;;;4950160;29;20073;-48
2022/07/16 02:58:35;;;;;;;5.40;2.42;;;;;;;;;;4951555;29;20682;-46
2022/07/16 03:01:02;;;;;;;8.98;2.58;;;;;;;;;;4952321;29;20118;-47
2022/07/16 03:03:29;;;;;;;6.60;2.67;;;;;;;;;;4953589;29;20035;-48
2022/07/16 03:05:56;;;;;;;13.32;3.05;;;;;;;;;;4953698;29;20042;-46
2022/07/16 03:08:23;;;;;;;11.35;2.53;;;;;;;;;;4953501;29;20074;-48
2022/07/16 03:10:50;;;;;;;9.93;2.55;;;;;;;;;;4953922;29;20031;-50
2022/07/16 03:13:18;;;;;;;7.40;2.35;;;;;;;;;;4950881;29;20035;-54
2022/07/16 03:15:45;;;;;;;6.38;2.10;;;;;;;;;;4950840;28;20066;-50
2022/07/16 03:18:12;;;;;;;6.30;2.05;;;;;;;;;;4951220;29;20035;-53
2022/07/16 03:20:39;;;;;;;9.60;2.15;;;;;;;;;;4949978;29;20379;-50
2022/07/16 03:23:06;;;;;;;8.30;2.33;;;;;;;;;;4950927;29;20116;-51
2022/07/16 03:25:33;;;;;;;6.63;1.98;;;;;;;;;;4950816;29;20035;-51
2022/07/16 03:28:00;;;;;;;8.00;2.17;;;;;;;;;;4950552;29;20126;-52
2022/07/16 03:30:27;;;;;;;4.57;1.90;;;;;;;;;;4951140;29;20033;-48
2022/07/16 03:32:54;;;;;;;3.53;1.70;;;;;;;;;;4949855;29;20497;-53
2022/07/16 03:35:21;;;;;;;5.82;1.90;;;;;;;;;;4950715;29;20113;-51
2022/07/16 03:40:34;;;;;;;6.47;1.85;;;;;;;;;;4950638;29;20577;-54
2022/07/16 03:43:01;;;;;;;4.25;1.55;;;;;;;;;;4950551;29;20122;-48
2022/07/16 03:45:28;;;;;;;6.80;1.85;;;;;;;;;;4951142;29;20035;-50
2022/07/16 03:47:55;;;;;;;9.63;1.70;;;;;;;;;;4952843;29;20489;-49
2022/07/16 03:50:22;;;;;;;6.85;1.60;;;;;;;;;;4953974;29;20023;-48
2022/07/16 03:52:49;;;;;;;3.83;1.40;;;;;;;;;;4953512;29;20031;-48
2022/07/16 03:55:16;;;;;;;6.30;1.67;;;;;;;;;;4953860;29;20031;-49
2022/07/16 03:57:43;;;;;;;6.70;1.60;;;;;;;;;;4953338;29;20382;-50
2022/07/16 04:00:11;;;;;;;6.00;1.70;;;;;;;;;;4953925;29;20098;-49
2022/07/16 04:02:38;;;;;;;7.07;1.88;;;;;;;;;;4951850;29;20452;-48
2022/07/16 04:05:05;;;;;;;7.53;1.63;;;;;;;;;;4953814;29;20046;-50
2022/07/16 04:07:32;;;;;;;6.47;2.10;;;;;;;;;;4953052;29;20035;-49
2022/07/16 04:09:59;;;;;;;3.38;1.33;;;;;;;;;;4953837;29;20099;-48
2022/07/16 04:12:26;;;;;;;4.05;1.83;;;;;;;;;;4952940;29;20032;-51
2022/07/16 04:14:54;;;;;;;5.63;1.80;;;;;;;;;;4953456;29;20117;-49
2022/07/16 04:17:21;;;;;;;8.25;1.60;;;;;;;;;;4953080;29;20062;-49
2022/07/16 04:19:48;;;;;;;6.65;1.48;;;;;;;;;;4953377;29;20059;-49
2022/07/16 04:22:15;;;;;;;7.43;1.60;;;;;;;;;;4952917;29;20040;-48
2022/07/16 04:24:42;;;;;;;4.30;1.50;;;;;;;;;;4953605;29;20106;-52
2022/07/16 04:27:09;;;;;;;5.05;1.25;;;;;;;;;;4955034;28;20027;-48
2022/07/16 04:29:37;;;;;;;5.38;1.50;;;;;;;;;;4956611;29;20117;-49
2022/07/16 04:32:05;;;;;;;5.55;1.48;;;;;;;;;;4957184;29;20055;-48
2022/07/16 04:34:32;;;;;;;2.90;1.10;;;;;;;;;;4956839;29;20039;-49
2022/07/16 04:36:59;;;;;;;4.30;1.40;;;;;;;;;;4957209;29;20031;-49
2022/07/16 04:39:26;;;;;;;3.95;1.20;;;;;;;;;;4956866;29;20031;-51
2022/07/16 04:41:53;;;;;;;2.95;1.50;;;;;;;;;;4956724;29;20394;-49
2022/07/16 04:44:20;;;;;;;3.38;1.48;;;;;;;;;;4956265;29;20158;-48
2022/07/16 04:46:47;;;;;;;2.85;1.10;;;;;;;;;;4957229;29;20037;-49
2022/07/16 04:49:14;;;;;;;5.43;1.40;;;;;;;;;;4956337;29;20379;-52
2022/07/16 04:51:41;;;;;;;3.05;1.25;;;;;;;;;;4956613;29;20477;-48
2022/07/16 04:54:08;;;;;;;3.03;1.20;;;;;;;;;;4956325;29;20039;-49
2022/07/16 04:56:35;;;;;;;3.80;1.02;;;;;;;;;;4956515;29;20058;-49
2022/07/16 04:59:02;;;;;;;2.78;1.02;;;;;;;;;;4956466;29;20393;-49
2022/07/16 05:01:28;;;;;;;2.80;1.17;;;;;;;;;;4956165;29;20031;-51
2022/07/16 05:03:55;;;;;;;2.80;1.25;;;;;;;;;;4956765;29;20489;-50
2022/07/16 05:06:22;;;;;;;3.13;1.20;;;;;;;;;;4956761;29;20082;-49
2022/07/16 05:08:49;;;;;;;6.63;1.25;;;;;;;;;;4955864;29;20035;-49
2022/07/16 05:11:17;;;;;;;2.45;1.10;;;;;;;;;;4956654;29;20037;-48
2022/07/16 05:13:44;;;;;;;3.95;1.17;;;;;;;;;;4955965;29;20053;-47
2022/07/16 05:16:11;;;;;;;3.83;0.93;;;;;;;;;;4956361;29;20062;-49
2022/07/16 05:18:38;;;;;;;2.53;1.33;;;;;;;;;;4956575;29;20038;-50
2022/07/16 05:21:05;;;;;;;2.03;0.90;;;;;;;;;;4955781;29;20035;-49
2022/07/16 05:23:32;;;;;;;2.05;0.73;;;;;;;;;;4956282;29;20118;-49
2022/07/16 05:25:58;;;;;;;2.30;1.10;;;;;;;;;;4955477;29;20035;-51
2022/07/16 05:28:26;;;;;;;3.80;1.00;;;;;;;;;;4956248;29;20517;-50
2022/07/16 05:30:53;;;;;;;3.78;1.20;;;;;;;;;;4955983;29;20507;-48
2022/07/16 05:33:20;;;;;;;3.45;1.20;;;;;;;;;;4955449;29;20552;-50
2022/07/16 05:35:47;;;;;;;2.50;0.77;;;;;;;;;;4955347;29;20077;-51
2022/07/16 05:38:14;;;;;;;5.32;0.80;;;;;;;;;;4955045;28;20374;-48
2022/07/16 05:40:41;;;;;;;2.03;0.80;;;;;;;;;;4955874;29;20029;-49
2022/07/16 05:43:08;;;;;;;2.67;0.93;;;;;;;;;;4955454;29;20038;-51
2022/07/16 05:45:34;;;;;;;2.08;1.00;;;;;;;;;;4955180;29;20037;-50
2022/07/16 05:48:01;;;;;;;2.58;0.90;;;;;;;;;;4955980;29;20035;-48
2022/07/16 05:50:28;;;;;;;2.83;0.90;;;;;;;;;;4955957;29;20029;-48
2022/07/16 05:52:55;;;;;;;2.25;0.90;;;;;;;;;;4955878;29;20035;-48
2022/07/16 05:55:22;;;;;;;1.30;0.70;;;;;;;;;;4955282;29;20035;-54
2022/07/16 05:57:49;;;;;;;1.83;0.80;;;;;;;;;;4955903;29;20039;-49
2022/07/16 06:00:16;;;;;;;3.33;1.13;;;;;;;;;;4954990;29;20047;-48
2022/07/16 06:02:44;;;;;;;1.95;0.80;;;;;;;;;;4955855;29;20035;-50
2022/07/16 06:05:11;;;;;;;1.70;0.73;;;;;;;;;;4955641;29;20057;-48
2022/07/16 06:07:38;;;;;;;1.85;0.68;;;;;;;;;;4954898;29;20043;-48
2022/07/16 06:10:06;;;;;;;3.22;0.88;;;;;;;;;;4954898;29;20062;-48
2022/07/16 06:12:32;;;;;;;2.20;1.00;;;;;;;;;;4955614;29;20030;-47
2022/07/16 06:14:59;;;;;;;1.80;0.80;;;;;;;;;;4955249;29;20085;-47
2022/07/16 06:17:27;;;;;;;0.85;0.63;;;;;;;;;;4937505;29;20034;-50
2022/07/16 06:19:54;;;;;;;3.78;0.90;;;;;;;;;;4954480;29;20058;-48
2022/07/16 06:22:21;;;;;;;1.83;0.70;;;;;;;;;;4955288;29;20031;-53
2022/07/16 06:24:48;;;;;;;1.30;0.70;;;;;;;;;;4955036;29;20085;-49
2022/07/16 06:27:15;;;;;;;1.00;0.60;;;;;;;;;;4954977;29;20038;-52
2022/07/16 06:29:42;;;;;;;1.98;0.85;;;;;;;;;;4954189;29;20118;-50
2022/07/16 06:32:08;;;;;;;1.75;0.63;;;;;;;;;;4954587;29;20050;-49
2022/07/16 06:34:35;;;;;;;2.92;0.70;;;;;;;;;;4954855;29;20063;-49
2022/07/16 06:37:02;;;;;;;1.70;0.82;;;;;;;;;;4955068;29;20529;-53
2022/07/16 06:39:29;;;;;;;0.75;0.52;;;;;;;;;;4954128;29;20598;-49
2022/07/16 06:41:56;;;;;;;0.90;0.52;;;;;;;;;;4955058;29;20059;-47
2022/07/16 06:44:23;;;;;;;1.02;0.52;;;;;;;;;;4954563;29;20035;-47
2022/07/16 06:46:50;;;;;;;0.98;0.50;;;;;;;;;;4954646;29;20066;-50
2022/07/16 06:49:17;;;;;;;0.77;0.45;;;;;;;;;;4954480;28;20482;-49
2022/07/16 06:51:44;;;;;;;1.13;0.52;;;;;;;;;;4954078;29;20031;-51
2022/07/16 06:54:11;;;;;;;0.70;0.47;;;;;;;;;;4954273;29;20038;-48
2022/07/16 06:56:38;;;;;;;1.38;0.50;;;;;;;;;;4954470;29;20102;-49
2022/07/16 06:59:05;;;;;;;0.90;0.40;;;;;;;;;;4954172;29;20042;-49
2022/07/16 07:01:32;;;;;;;1.42;0.50;;;;;;;;;;4954240;29;20035;-49
2022/07/16 07:03:59;;;;;;;1.40;0.60;;;;;;;;;;4953735;29;20402;-49
2022/07/16 07:06:26;;;;;;;1.35;0.60;;;;;;;;;;4954556;29;20027;-48
2022/07/16 07:08:53;;;;;;;0.50;0.30;;;;;;;;;;4954487;29;20046;-48
2022/07/16 07:11:20;;;;;;;0.63;0.43;;;;;;;;;;4954266;29;20046;-46
2022/07/16 07:13:48;;;;;;;1.42;0.50;;;;;;;;;;4953428;29;20035;-47
2022/07/16 07:16:16;;;;;;;0.55;0.43;;;;;;;;;;4954315;29;20485;-46
2022/07/16 07:18:43;;;;;;;0.93;0.38;;;;;;;;;;4953788;29;20062;-48
2022/07/16 07:21:10;;;;;;;2.38;0.50;;;;;;;;;;4953862;29;20151;-47
2022/07/16 07:23:37;;;;;;;2.28;0.60;;;;;;;;;;4954240;29;20390;-48
2022/07/16 07:26:04;;;;;;;1.10;0.32;;;;;;;;;;4954228;29;20027;-52
2022/07/16 07:28:31;;;;;;;0.57;0.45;;;;;;;;;;4953227;29;20050;-51
2022/07/16 07:30:58;;;;;;;1.63;0.40;;;;;;;;;;4954163;29;20452;-48
2022/07/16 07:33:25;;;;;;;0.60;0.40;;;;;;;;;;4953600;29;20058;-50
2022/07/16 07:35:53;;;;;;;1.13;0.50;;;;;;;;;;4953756;29;20024;-46
2022/07/16 07:38:20;;;;;;;1.20;0.43;;;;;;;;;;4954240;29;20042;-51
2022/07/16 07:40:47;;;;;;;0.90;0.40;;;;;;;;;;4954045;29;20034;-50
2022/07/16 07:43:14;;;;;;;0.80;0.40;;;;;;;;;;4953030;29;20034;-48
2022/07/16 07:45:41;;;;;;;0.55;0.35;;;;;;;;;;4953555;29;20390;-49
2022/07/16 07:48:08;;;;;;;0.65;0.30;;;;;;;;;;4953399;29;20039;-49
2022/07/16 07:50:35;;;;;;;0.70;0.30;;;;;;;;;;4953985;29;20493;-49
2022/07/16 07:53:02;;;;;;;0.95;0.30;;;;;;;;;;4953079;29;20039;-49
2022/07/16 07:55:30;;;;;;;1.58;0.38;;;;;;;;;;4953671;29;20039;-50
2022/07/16 07:57:57;;;;;;;1.50;0.40;;;;;;;;;;4953453;29;20577;-49
2022/07/16 08:00:25;;;;;;;1.27;0.40;;;;;;;;;;4953906;29;20053;-52
2022/07/16 08:02:52;;;;;;;0.60;0.40;;;;;;;;;;4955537;29;20049;-47
2022/07/16 08:05:19;;;;;;;1.25;0.40;;;;;;;;;;4957807;29;20082;-52
2022/07/16 08:07:46;;;;;;;0.43;0.40;;;;;;;;;;4957091;29;20114;-49
2022/07/16 08:10:13;;;;;;;0.50;0.30;;;;;;;;;;4957307;29;20470;-47
2022/07/16 08:12:40;;;;;;;1.15;0.50;;;;;;;;;;4957715;29;20059;-52
2022/07/16 08:15:08;;;;;;;1.65;0.60;;;;;;;;;;4956700;29;20031;-48
2022/07/16 08:17:35;;;;;;;1.55;0.32;;;;;;;;;;4957303;29;20055;-48
2022/07/16 08:20:04;;;;;;;0.75;0.50;;;;;;;;;;4957129;29;20460;-49
2022/07/16 08:22:30;;;;;;;1.50;0.20;;;;;;;;;;4957607;29;20118;-49
2022/07/16 08:27:43;;;;;;;0.45;0.30;;;;;;;;;;4957137;29;20075;-46
2022/07/16 08:30:11;;;;;;;0.50;0.30;;;;;;;;;;4956933;29;20062;-47
2022/07/16 08:32:38;;;;;;;1.38;0.40;;;;;;;;;;4956795;29;20110;-48
2022/07/16 08:35:05;;;;;;;0.55;0.20;;;;;;;;;;4956764;29;20027;-48
2022/07/16 08:37:35;;;;;;;0.30;0.22;;;;;;;;;;4957034;29;20031;-47
2022/07/16 08:40:04;;;;;;;1.92;0.20;;;;;;;;;;4956366;29;20031;-48
2022/07/16 08:42:32;;;;;;;0.50;0.30;;;;;;;;;;4956410;29;20052;-48
2022/07/16 08:45:00;;;;;;;1.27;0.40;;;;;;;;;;4956859;29;20098;-47
2022/07/16 08:47:28;;;;;;;1.35;0.30;;;;;;;;;;4956981;29;20062;-48
2022/07/16 08:49:55;;;;;;;3.92;0.47;;;;;;;;;;4956154;29;20023;-48
2022/07/16 08:52:26;;;;;;;1.35;0.45;;;;;;;;;;4957045;29;20027;-48
2022/07/16 08:54:54;;;;;;;2.83;0.40;;;;;;;;;;4956315;29;20448;-47
2022/07/16 08:57:21;;;;;;;0.63;0.40;;;;;;;;;;4956386;29;20034;-48
2022/07/16 08:59:49;;;;;;;2.28;0.30;;;;;;;;;;4956816;29;20421;-50
2022/07/16 09:02:16;;;;;;;3.42;0.47;;;;;;;;;;4956729;29;20031;-50
2022/07/16 09:04:43;;;;;;;4.68;0.40;;;;;;;;;;4956658;29;20140;-48
2022/07/16 09:07:14;;;;;;;1.83;0.30;;;;;;;;;;4956032;29;20148;-46
2022/07/16 09:09:41;;;;;;;1.73;0.40;;;;;;;;;;4956453;29;20070;-48
2022/07/16 09:12:08;;;;;;;1.08;0.35;;;;;;;;;;4955973;28;20035;-48
2022/07/16 09:14:35;;;;;;;2.50;0.50;;;;;;;;;;4939022;29;20397;-47
2022/07/16 09:17:02;;;;;;;1.17;0.50;;;;;;;;;;4956247;29;20039;-48
2022/07/16 09:19:30;;;;;;;1.60;0.50;;;;;;;;;;4956347;29;20111;-47
2022/07/16 09:22:13;;;;;;;1.52;0.40;;;;;;;;;;4955795;29;20027;-48
2022/07/16 09:24:40;;;;;;;2.85;0.40;;;;;;;;;;4955938;29;20039;-47
2022/07/16 09:27:09;;;;;;;0.82;0.30;;;;;;;;;;4956118;29;20078;-48
2022/07/16 09:29:54;;;;;;;1.65;0.30;;;;;;;;;;4956265;29;20123;-50
2022/07/16 09:32:32;;;;;;;1.00;0.30;;;;;;;;;;4955421;29;20055;-47
2022/07/16 09:35:03;;;;;;;0.70;0.30;;;;;;;;;;4956259;29;20063;-46
2022/07/16 09:37:48;;;;;;;2.55;0.30;;;;;;;;;;4956364;29;20062;-51
2022/07/16 09:40:16;;;;;;;1.75;0.40;;;;;;;;;;4955439;29;20027;-46
2022/07/16 09:42:43;;;;;;;1.58;0.30;;;;;;;;;;4955899;29;20023;-47
2022/07/16 09:45:19;;;;;;;1.38;0.50;;;;;;;;;;4955704;29;20031;-47
2022/07/16 09:47:46;;;;;;;0.90;0.28;;;;;;;;;;4955426;28;20090;-49
2022/07/16 09:50:14;;;;;;;2.30;0.47;;;;;;;;;;4955236;29;20584;-49
2022/07/16 09:52:41;;;;;;;0.80;0.20;;;;;;;;;;4955793;29;20058;-48
2022/07/16 09:55:08;;;;;;;0.40;0.20;;;;;;;;;;4955872;29;20027;-47
2022/07/16 09:57:36;;;;;;;0.57;0.20;;;;;;;;;;4955377;29;20027;-46
2022/07/16 10:00:06;;;;;;;0.50;0.20;;;;;;;;;;4954763;29;20421;-49
2022/07/16 10:02:33;;;;;;;0.65;0.30;;;;;;;;;;4955648;29;20038;-48
2022/07/16 10:05:01;;;;;;;0.50;0.30;;;;;;;;;;4955110;29;20034;-47
2022/07/16 10:07:28;;;;;;;0.95;0.30;;;;;;;;;;4955740;29;20024;-46
2022/07/16 10:09:55;;;;;;;1.58;0.30;;;;;;;;;;4954734;29;20027;-46
2022/07/16 10:12:22;;;;;;;1.75;0.38;;;;;;;;;;4955360;29;20027;-46
2022/07/16 10:14:50;;;;;;;1.63;0.20;;;;;;;;;;4954946;29;20089;-52
2022/07/16 10:17:21;;;;;;;0.77;0.20;;;;;;;;;;4954791;29;20039;-47
2022/07/16 10:20:00;;;;;;;1.58;0.20;;;;;;;;;;4937565;29;20039;-48
2022/07/16 10:22:31;;;;;;;1.52;0.30;;;;;;;;;;4955464;29;20425;-47
2022/07/16 10:24:59;;;;;;;0.50;0.30;;;;;;;;;;4954302;28;20126;-47
2022/07/16 10:27:35;;;;;;;0.75;0.22;;;;;;;;;;4954806;29;20582;-49
2022/07/16 10:30:13;;;;;;;1.02;0.30;;;;;;;;;;4954692;29;20023;-46
2022/07/16 10:32:59;;;;;;;2.78;0.30;;;;;;;;;;4954351;29;20063;-48
2022/07/16 10:35:29;;;;;;;0.43;0.20;;;;;;;;;;4937073;29;20070;-47
2022/07/16 10:38:06;;;;;;;0.75;0.30;;;;;;;;;;4954811;29;20378;-46
2022/07/16 10:40:33;;;;;;;0.52;0.20;;;;;;;;;;4954529;29;20031;-47
2022/07/16 10:43:12;;;;;;;0.95;0.30;;;;;;;;;;4955146;29;20036;-47
2022/07/16 10:45:59;;;;;;;0.30;0.22;;;;;;;;;;4954021;29;20034;-47
2022/07/16 10:48:27;;;;;;;0.43;0.28;;;;;;;;;;4954897;29;20547;-48
2022/07/16 10:51:10;;;;;;;0.20;0.20;;;;;;;;;;4954250;29;20038;-48
2022/07/16 10:53:58;;;;;;;0.40;0.20;;;;;;;;;;4954660;29;20077;-49
2022/07/16 10:56:34;;;;;;;1.73;0.20;;;;;;;;;;4954284;29;20043;-47
2022/07/16 10:59:06;;;;;;;0.47;0.20;;;;;;;;;;4954444;29;20405;-46
2022/07/16 11:01:33;;;;;;;0.75;0.25;;;;;;;;;;4954305;29;20027;-48
2022/07/16 11:04:02;;;;;;;0.70;0.20;;;;;;;;;;4954399;29;20031;-47
2022/07/16 11:06:30;;;;;;;0.30;0.20;;;;;;;;;;4954154;29;20035;-49
2022/07/16 11:08:57;;;;;;;0.20;0.20;;;;;;;;;;4953869;29;20176;-47
2022/07/16 11:11:24;;;;;;;1.92;0.20;;;;;;;;;;4954047;29;20042;-48
2022/07/16 11:13:54;;;;;;;0.88;0.20;;;;;;;;;;4954605;29;20098;-48
2022/07/16 11:16:21;;;;;;;0.10;0.10;;;;;;;;;;4953552;29;20102;-46
2022/07/16 11:18:48;;;;;;;1.60;0.30;;;;;;;;;;4953922;29;20031;-48
2022/07/16 11:21:15;;;;;;;0.40;0.20;;;;;;;;;;4954030;29;20058;-46
2022/07/16 11:23:49;;;;;;;0.77;0.40;;;;;;;;;;4953902;29;20035;-48
2022/07/16 11:26:16;;;;;;;0.30;0.25;;;;;;;;;;4954203;29;20032;-46
2022/07/16 11:28:58;;;;;;;0.43;0.28;;;;;;;;;;4953476;29;20485;-48
2022/07/16 11:31:26;;;;;;;1.87;0.33;;;;;;;;;;4954184;29;20031;-48
2022/07/16 11:33:55;;;;;;;0.75;0.20;;;;;;;;;;4953289;29;20453;-49
2022/07/16 11:36:22;;;;;;;0.50;0.30;;;;;;;;;;4953572;28;20035;-50
2022/07/16 11:38:49;;;;;;;0.55;0.17;;;;;;;;;;4953162;29;20044;-48
2022/07/16 11:41:17;;;;;;;0.68;0.40;;;;;;;;;;4953845;29;20516;-49
2022/07/16 11:43:44;;;;;;;1.20;0.35;;;;;;;;;;4953619;29;20489;-47
2022/07/16 11:46:41;;;;;;;0.63;0.20;;;;;;;;;;4936946;29;20031;-46
2022/07/16 11:49:08;;;;;;;0.40;0.20;;;;;;;;;;4923946;29;20079;-48
2022/07/16 11:51:38;;;;;;;1.45;0.22;;;;;;;;;;4953452;29;20043;-48
2022/07/16 11:54:05;;;;;;;1.05;0.30;;;;;;;;;;4953662;29;20035;-46
2022/07/16 11:56:40;;;;;;;0.47;0.13;;;;;;;;;;4953549;29;20038;-47
2022/07/16 11:59:17;;;;;;;0.10;0.10;;;;;;;;;;4954003;29;20031;-45
2022/07/16 12:01:44;;;;;;;0.17;0.17;;;;;;;;;;4953401;29;20542;-46
2022/07/16 12:04:11;;;;;;;0.98;0.10;;;;;;;;;;4952815;29;20034;-48
2022/07/16 12:06:38;;;;;;;0.90;0.32;;;;;;;;;;4953623;29;20034;-52
2022/07/16 12:09:05;;;;;;;0.40;0.20;;;;;;;;;;4952939;29;20074;-47
2022/07/16 12:11:33;;;;;;;2.20;0.22;;;;;;;;;;4952954;29;20074;-46
2022/07/16 12:14:02;;;;;;;0.28;0.13;;;;;;;;;;4953692;29;20031;-47
2022/07/16 12:16:29;;;;;;;0.20;0.20;;;;;;;;;;4953722;29;20032;-47
2022/07/16 12:19:05;;;;;;;0.50;0.20;;;;;;;;;;4953266;29;20035;-49
2022/07/16 12:21:34;;;;;;;1.83;0.20;;;;;;;;;;4953778;29;20035;-47
2022/07/16 12:24:02;;;;;;;0.22;0.20;;;;;;;;;;4952925;29;20031;-46
2022/07/16 12:26:30;;;;;;;0.10;0.10;;;;;;;;;;4953863;29;20532;-46
2022/07/16 12:28:57;;;;;;;0.30;0.20;;;;;;;;;;4942858;29;20031;-47
2022/07/16 12:31:27;;;;;;;1.98;0.20;;;;;;;;;;4933205;29;20492;-48
2022/07/16 12:33:54;;;;;;;0.50;0.20;;;;;;;;;;4928140;29;20075;-46
2022/07/16 12:36:28;;;;;;;0.30;0.20;;;;;;;;;;4924505;29;20111;-52
2022/07/16 12:38:59;;;;;;;0.57;0.20;;;;;;;;;;4922022;29;20064;-48
2022/07/16 12:41:28;;;;;;;10.93;0.80;;;;;;;;;;4914606;29;20395;-49
2022/07/16 12:44:01;;;;;;;5.85;0.40;;;;;;;;;;4915184;29;20505;-52
2022/07/16 12:46:32;;;;;;;1.30;0.30;;;;;;;;;;4934291;29;20024;-50
2022/07/16 12:49:02;;;;;;;3.22;0.50;;;;;;;;;;4935855;29;20453;-49
2022/07/16 12:51:31;;;;;;;2.97;0.68;;;;;;;;;;4936854;29;20035;-50
2022/07/16 12:53:58;;;;;;;4.90;0.60;;;;;;;;;;4935156;29;20545;-46
2022/07/16 12:59:11;;;;;;;5.90;0.90;;;;;;;;;;4937175;29;20067;-46
2022/07/16 13:01:39;;;;;;;5.63;0.93;;;;;;;;;;4936216;29;20031;-48
2022/07/16 13:04:06;;;;;;;6.22;0.93;;;;;;;;;;4926037;29;20039;-47
2022/07/16 13:06:34;;;;;;;6.15;0.82;;;;;;;;;;4932372;29;20035;-47
2022/07/16 13:09:01;;;;;;;3.78;0.90;;;;;;;;;;4926601;29;20040;-52
2022/07/16 13:11:28;;;;;;;6.60;0.90;;;;;;;;;;4932972;29;20034;-46
2022/07/16 13:13:55;;;;;;;7.40;0.60;;;;;;;;;;4928587;29;20035;-49
2022/07/16 13:16:23;;;;;;;3.13;0.80;;;;;;;;;;4937384;29;20027;-51
2022/07/16 13:18:51;;;;;;;9.38;0.68;;;;;;;;;;4917767;29;20040;-48
2022/07/16 13:21:18;;;;;;;3.80;0.80;;;;;;;;;;4926705;29;20517;-46
2022/07/16 13:23:46;;;;;;;6.45;0.85;;;;;;;;;;4930296;29;20036;-50
2022/07/16 13:26:13;;;;;;;6.32;0.80;;;;;;;;;;4934588;29;20038;-48
2022/07/16 13:28:40;;;;;;;3.55;0.65;;;;;;;;;;4929281;29;20135;-47
2022/07/16 13:31:08;;;;;;;3.33;0.80;;;;;;;;;;4910429;29;20066;-53
2022/07/16 13:33:35;;;;;;;6.35;1.05;;;;;;;;;;4924504;29;20058;-54
2022/07/16 13:36:02;;;;;;;4.00;0.85;;;;;;;;;;4930780;29;20039;-47
2022/07/16 13:38:29;;;;;;;8.32;0.90;;;;;;;;;;4934647;29;20390;-47
2022/07/16 13:40:56;;;;;;;4.93;0.90;;;;;;;;;;4927840;29;20046;-48
2022/07/16 13:43:23;;;;;;;7.10;0.85;;;;;;;;;;4918729;29;20115;-48
2022/07/16 13:45:51;;;;;;;4.03;0.77;;;;;;;;;;4929613;29;20040;-50
2022/07/16 13:48:18;;;;;;;6.22;0.93;;;;;;;;;;4931512;29;20502;-49
2022/07/16 13:50:45;;;;;;;5.63;0.85;;;;;;;;;;4921205;29;20032;-46
2022/07/16 13:53:12;;;;;;;7.28;1.33;;;;;;;;;;4926244;29;20482;-51
2022/07/16 13:55:39;;;;;;;8.48;1.00;;;;;;;;;;4928326;29;20102;-50
2022/07/16 13:58:21;;;;;;;9.38;0.90;;;;;;;;;;4924890;29;20035;-47
2022/07/16 14:00:50;;;;;;;4.00;0.90;;;;;;;;;;4922494;29;20071;-49
2022/07/16 14:03:17;;;;;;;4.53;0.82;;;;;;;;;;4932859;29;20394;-46
2022/07/16 14:05:45;;;;;;;5.95;0.70;;;;;;;;;;4930107;29;20426;-50
2022/07/16 14:08:13;;;;;;;5.88;0.70;;;;;;;;;;4931439;29;20051;-50
2022/07/16 14:10:40;;;;;;;5.97;0.70;;;;;;;;;;4932487;29;20035;-47
2022/07/16 14:13:08;;;;;;;9.45;0.82;;;;;;;;;;4926676;29;20039;-49
2022/07/16 14:15:35;;;;;;;4.05;0.70;;;;;;;;;;4930564;29;20481;-52
2022/07/16 14:18:03;;;;;;;4.13;0.90;;;;;;;;;;4924905;29;20040;-49
2022/07/16 14:20:31;;;;;;;2.88;0.70;;;;;;;;;;4925453;29;20032;-52
2022/07/16 14:22:58;;;;;;;3.72;0.60;;;;;;;;;;4923189;29;20035;-49
2022/07/16 14:25:25;;;;;;;9.57;1.38;;;;;;;;;;4925627;29;20031;-52
2022/07/16 14:27:53;;;;;;;3.10;0.68;;;;;;;;;;4921925;29;20109;-47
2022/07/16 14:30:20;;;;;;;9.02;0.93;;;;;;;;;;4924111;29;20247;-48
2022/07/16 14:32:47;;;;;;;10.10;1.00;;;;;;;;;;4906862;29;20051;-46
2022/07/16 14:35:15;;;;;;;11.02;1.58;;;;;;;;;;4911436;29;20122;-47
2022/07/16 14:37:43;;;;;;;8.70;1.30;;;;;;;;;;4929415;29;20027;-52
2022/07/16 14:40:11;;;;;;;15.38;1.67;;;;;;;;;;4927811;29;20054;-47
2022/07/16 14:42:38;;;;;;;24.58;2.10;;;;;;;;;;4916953;29;20126;-51
2022/07/16 14:45:09;;;;;;;27.23;2.65;;;;;;;;;;4923878;29;20383;-51
2022/07/16 14:47:36;;;;;;;21.23;1.90;;;;;;;;;;4929279;29;20031;-46
2022/07/16 14:50:03;;;;;;;19.60;1.85;;;;;;;;;;4929649;29;20074;-50
2022/07/16 14:52:30;;;;;;;11.82;1.42;;;;;;;;;;4925118;29;20044;-51
2022/07/16 14:54:57;;;;;;;15.32;1.70;;;;;;;;;;4928088;29;20139;-51
2022/07/16 14:57:25;;;;;;;6.15;1.23;;;;;;;;;;4926162;29;20072;-51